createdAt,value
2023-01-18T00:01:38.345Z,24.72
2023-01-18T00:04:08.313Z,24.75
2023-01-18T00:06:38.319Z,24.76
2023-01-18T00:09:08.356Z,24.69
2023-01-18T00:11:39.061Z,24.76
2023-01-18T00:14:10.287Z,24.72
2023-01-18T00:16:41.977Z,24.69
2023-01-18T00:19:14.326Z,24.77
2023-01-18T00:21:44.764Z,24.79
2023-01-18T00:24:16.134Z,24.73
2023-01-18T00:26:47.371Z,24.72
2023-01-18T00:29:18.165Z,24.67
2023-01-18T00:31:48.535Z,24.57
2023-01-18T00:34:18.577Z,24.56
2023-01-18T00:36:51.007Z,24.53
2023-01-18T00:39:21.698Z,24.49
2023-01-18T00:42:09.483Z,24.48
2023-01-18T00:44:40.848Z,24.40
2023-01-18T00:47:11.039Z,24.36
2023-01-18T00:49:41.407Z,24.30
2023-01-18T00:52:12.004Z,24.35
2023-01-18T00:54:42.006Z,24.26
2023-01-18T00:57:12.050Z,24.28
2023-01-18T00:59:44.408Z,24.25
2023-01-18T01:02:15.456Z,24.30
2023-01-18T01:05:03.439Z,24.33
2023-01-18T01:07:35.994Z,24.28
2023-01-18T01:10:10.212Z,24.25
2023-01-18T01:12:59.018Z,24.22
2023-01-18T01:15:48.025Z,24.09
2023-01-18T01:18:37.207Z,24.05
2023-01-18T01:21:28.344Z,24.00
2023-01-18T01:24:16.834Z,23.97
2023-01-18T01:26:47.240Z,23.96
2023-01-18T01:29:17.973Z,23.94
2023-01-18T01:31:49.906Z,23.91
2023-01-18T01:34:20.706Z,23.85
2023-01-18T01:36:53.514Z,23.85
2023-01-18T01:39:25.120Z,23.81
2023-01-18T01:41:56.826Z,23.85
2023-01-18T01:44:29.251Z,23.81
2023-01-18T01:47:05.997Z,23.80
2023-01-18T01:49:41.183Z,23.81
2023-01-18T01:52:22.011Z,23.80
2023-01-18T01:54:56.286Z,23.75
2023-01-18T01:57:37.968Z,23.74
2023-01-18T02:00:20.841Z,23.78
2023-01-18T02:03:04.491Z,23.75
2023-01-18T02:05:38.040Z,23.70
2023-01-18T02:08:12.701Z,23.70
2023-01-18T02:10:43.273Z,23.67
2023-01-18T02:13:14.880Z,23.66
2023-01-18T02:15:51.069Z,23.64
2023-01-18T02:18:33.709Z,23.64
2023-01-18T02:21:19.175Z,23.59
2023-01-18T02:24:24.553Z,23.56
2023-01-18T02:27:07.011Z,23.50
2023-01-18T02:30:13.488Z,23.53
2023-01-18T02:32:49.658Z,23.57
2023-01-18T02:35:32.740Z,23.53
2023-01-18T02:38:26.072Z,23.53
2023-01-18T02:41:10.828Z,23.46
2023-01-18T02:44:02.602Z,23.46
2023-01-18T02:46:37.210Z,23.39
2023-01-18T02:49:22.854Z,23.36
2023-01-18T02:52:05.655Z,23.36
2023-01-18T02:54:42.111Z,23.37
2023-01-18T02:57:17.589Z,23.43
2023-01-18T02:59:52.814Z,23.43
2023-01-18T03:02:27.626Z,23.33
2023-01-18T03:04:58.836Z,23.36
2023-01-18T03:07:37.832Z,23.34
2023-01-18T03:10:11.882Z,23.34
2023-01-18T03:13:22.668Z,23.42
2023-01-18T03:15:58.999Z,23.36
2023-01-18T03:19:03.816Z,23.34
2023-01-18T03:21:44.558Z,23.43
2023-01-18T03:24:18.396Z,23.39
2023-01-18T03:26:55.491Z,23.30
2023-01-18T03:29:45.611Z,23.33
2023-01-18T03:32:38.096Z,23.34
2023-01-18T03:35:17.311Z,23.30
2023-01-18T03:37:55.268Z,23.27
2023-01-18T03:40:30.656Z,23.26
2023-01-18T03:43:08.231Z,23.23
2023-01-18T03:45:45.961Z,23.23
2023-01-18T03:48:18.650Z,23.24
2023-01-18T03:51:01.931Z,23.23
2023-01-18T03:53:40.223Z,23.27
2023-01-18T03:56:43.954Z,23.20
2023-01-18T03:59:16.371Z,23.18
2023-01-18T04:01:49.284Z,23.20
2023-01-18T04:04:19.855Z,23.23
2023-01-18T04:06:50.139Z,23.18
2023-01-18T04:09:20.828Z,23.13
2023-01-18T04:11:51.252Z,23.13
2023-01-18T04:14:22.667Z,23.13
2023-01-18T04:16:53.240Z,23.10
2023-01-18T04:19:25.091Z,23.08
2023-01-18T04:21:56.270Z,23.06
2023-01-18T04:24:27.333Z,23.05
2023-01-18T04:26:57.866Z,22.98
2023-01-18T04:29:29.732Z,22.99
2023-01-18T04:32:00.704Z,23.01
2023-01-18T04:34:30.947Z,22.94
2023-01-18T04:37:01.821Z,22.94
2023-01-18T04:39:32.554Z,22.94
2023-01-18T04:42:03.621Z,22.96
2023-01-18T04:44:34.005Z,22.96
2023-01-18T04:47:05.401Z,22.98
2023-01-18T04:49:37.221Z,22.96
2023-01-18T04:52:08.833Z,22.98
2023-01-18T04:54:39.253Z,22.99
2023-01-18T04:57:09.032Z,23.02
2023-01-18T04:59:40.499Z,23.03
2023-01-18T05:02:12.152Z,23.01
2023-01-18T05:04:43.277Z,22.96
2023-01-18T05:07:13.544Z,22.95
2023-01-18T05:09:44.055Z,22.99
2023-01-18T05:12:14.369Z,22.99
2023-01-18T05:14:44.961Z,22.98
2023-01-18T05:17:15.933Z,22.91
2023-01-18T05:19:47.826Z,22.92
2023-01-18T05:22:19.292Z,22.87
2023-01-18T05:24:51.457Z,22.85
2023-01-18T05:27:21.865Z,22.82
2023-01-18T05:29:52.083Z,22.87
2023-01-18T05:32:23.465Z,22.88
2023-01-18T05:34:53.659Z,22.85
2023-01-18T05:37:23.360Z,22.84
2023-01-18T05:39:53.896Z,22.82
2023-01-18T05:42:23.804Z,22.82
2023-01-18T05:44:54.424Z,22.81
2023-01-18T05:47:25.382Z,22.82
2023-01-18T05:49:58.911Z,22.79
2023-01-18T05:52:29.132Z,22.81
2023-01-18T05:54:59.053Z,22.78
2023-01-18T05:57:31.023Z,22.79
2023-01-18T06:00:03.797Z,22.79
2023-01-18T06:02:40.803Z,22.75
2023-01-18T06:05:13.064Z,22.79
2023-01-18T06:07:44.671Z,22.81
2023-01-18T06:10:16.071Z,22.79
2023-01-18T06:12:46.505Z,22.72
2023-01-18T06:15:16.725Z,22.71
2023-01-18T06:17:48.673Z,22.67
2023-01-18T06:20:19.455Z,22.64
2023-01-18T06:22:49.901Z,22.64
2023-01-18T06:25:20.112Z,22.60
2023-01-18T06:27:50.067Z,22.62
2023-01-18T06:30:21.960Z,22.65
2023-01-18T06:32:53.011Z,22.67
2023-01-18T06:35:23.216Z,22.67
2023-01-18T06:37:53.754Z,22.62
2023-01-18T06:40:24.869Z,22.67
2023-01-18T06:42:55.924Z,22.68
2023-01-18T06:45:27.500Z,22.73
2023-01-18T06:47:58.431Z,22.78
2023-01-18T06:50:29.064Z,22.79
2023-01-18T06:52:59.967Z,22.79
2023-01-18T06:55:30.640Z,22.79
2023-01-18T06:58:00.365Z,22.81
2023-01-18T07:00:30.818Z,22.78
2023-01-18T07:03:01.333Z,22.79
2023-01-18T07:05:32.210Z,22.75
2023-01-18T07:08:02.116Z,22.73
2023-01-18T07:10:31.832Z,22.75
2023-01-18T07:13:03.557Z,22.76
2023-01-18T07:15:33.777Z,22.76
2023-01-18T07:18:03.497Z,22.72
2023-01-18T07:20:33.994Z,22.75
2023-01-18T07:23:06.238Z,22.78
2023-01-18T07:25:37.731Z,22.79
2023-01-18T07:28:07.968Z,22.85
2023-01-18T07:30:37.708Z,22.84
2023-01-18T07:33:09.922Z,22.89
2023-01-18T07:35:40.700Z,22.94
2023-01-18T07:38:10.787Z,22.98
2023-01-18T07:40:41.466Z,23.02
2023-01-18T07:43:11.211Z,23.03
2023-01-18T07:45:41.794Z,23.08
2023-01-18T07:48:12.727Z,23.09
2023-01-18T07:50:43.118Z,23.10
2023-01-18T07:53:12.857Z,23.10
2023-01-18T07:55:43.389Z,23.12
2023-01-18T07:58:13.442Z,23.09
2023-01-18T08:00:46.069Z,23.12
2023-01-18T08:03:19.065Z,23.12
2023-01-18T08:05:50.479Z,23.13
2023-01-18T08:08:20.690Z,23.15
2023-01-18T08:10:57.296Z,23.12
2023-01-18T08:13:29.621Z,23.10
2023-01-18T08:16:04.858Z,23.08
2023-01-18T08:18:35.187Z,23.02
2023-01-18T08:21:05.758Z,23.02
2023-01-18T08:23:36.154Z,22.99
2023-01-18T08:26:06.639Z,22.98
2023-01-18T08:28:38.082Z,22.95
2023-01-18T08:31:19.154Z,22.85
2023-01-18T08:33:51.063Z,22.76
2023-01-18T08:36:24.555Z,22.69
2023-01-18T08:39:01.134Z,22.65
2023-01-18T08:41:34.400Z,22.61
2023-01-18T08:44:04.730Z,22.57
2023-01-18T08:46:34.650Z,22.55
2023-01-18T08:49:06.924Z,22.57
2023-01-18T08:51:37.475Z,22.62
2023-01-18T08:54:08.438Z,22.68
2023-01-18T08:56:38.976Z,22.72
2023-01-18T08:59:11.726Z,22.78
2023-01-18T09:01:42.560Z,22.81
2023-01-18T09:04:15.237Z,22.85
2023-01-18T09:06:48.242Z,22.87
2023-01-18T09:09:18.572Z,22.92
2023-01-18T09:11:49.003Z,22.96
2023-01-18T09:14:20.757Z,22.98
2023-01-18T09:16:51.262Z,22.96
2023-01-18T09:19:21.608Z,22.99
2023-01-18T09:21:55.049Z,23.02
2023-01-18T09:24:26.980Z,23.13
2023-01-18T09:26:58.065Z,23.19
2023-01-18T09:29:28.399Z,23.19
2023-01-18T09:31:58.676Z,23.26
2023-01-18T09:34:29.275Z,23.30
2023-01-18T09:36:59.012Z,23.30
2023-01-18T09:39:33.379Z,23.27
2023-01-18T09:42:18.801Z,23.39
2023-01-18T09:44:53.459Z,23.51
2023-01-18T09:47:49.561Z,23.84
2023-01-18T09:50:22.406Z,24.22
2023-01-18T09:53:10.855Z,24.28
2023-01-18T09:56:22.424Z,24.73
2023-01-18T09:59:01.512Z,24.67
2023-01-18T10:01:34.989Z,24.55
2023-01-18T10:04:32.315Z,24.42
2023-01-18T10:07:18.289Z,24.42
2023-01-18T10:09:53.524Z,24.63
2023-01-18T10:12:39.621Z,24.77
2023-01-18T10:15:25.430Z,24.98
2023-01-18T10:18:01.431Z,24.94
2023-01-18T10:20:38.037Z,24.91
2023-01-18T10:23:11.619Z,24.97
2023-01-18T10:25:53.667Z,24.91
2023-01-18T10:28:37.638Z,25.03
2023-01-18T10:31:45.978Z,24.96
2023-01-18T10:34:24.830Z,24.88
2023-01-18T10:37:08.106Z,24.86
2023-01-18T10:39:43.032Z,24.83
2023-01-18T10:42:24.737Z,24.69
2023-01-18T10:44:55.385Z,24.63
2023-01-18T10:47:25.336Z,24.57
2023-01-18T10:50:01.176Z,24.56
2023-01-18T10:52:34.065Z,24.63
2023-01-18T10:55:10.416Z,24.82
2023-01-18T10:57:47.454Z,25.04
2023-01-18T11:00:33.449Z,25.10
2023-01-18T11:03:08.634Z,25.08
2023-01-18T11:05:47.670Z,25.14
2023-01-18T11:08:26.251Z,25.17
2023-01-18T11:11:04.861Z,25.02
2023-01-18T11:13:46.073Z,24.97
2023-01-18T11:16:21.993Z,24.94
2023-01-18T11:18:59.690Z,24.97
2023-01-18T11:21:52.143Z,24.97
2023-01-18T11:24:33.090Z,24.86
2023-01-18T11:27:07.956Z,24.77
2023-01-18T11:29:42.751Z,24.66
2023-01-18T11:32:30.778Z,24.56
2023-01-18T11:35:02.277Z,24.46
2023-01-18T11:37:38.782Z,24.52
2023-01-18T11:40:34.219Z,24.67
2023-01-18T11:43:22.184Z,24.82
2023-01-18T11:46:02.510Z,24.86
2023-01-18T11:48:46.275Z,24.94
2023-01-18T11:51:26.949Z,24.93
2023-01-18T11:54:08.137Z,24.98
2023-01-18T11:56:52.666Z,25.10
2023-01-18T11:59:33.151Z,25.27
2023-01-18T12:02:21.324Z,25.65
2023-01-18T12:05:17.679Z,25.45
2023-01-18T12:08:23.549Z,25.04
2023-01-18T12:10:57.262Z,24.93
2023-01-18T12:13:40.840Z,24.82
2023-01-18T12:16:18.129Z,24.77
2023-01-18T12:19:24.498Z,24.93
2023-01-18T12:22:25.010Z,25.14
2023-01-18T12:25:00.471Z,25.17
2023-01-18T12:27:36.629Z,25.37
2023-01-18T12:30:37.994Z,25.61
2023-01-18T12:33:31.215Z,25.93
2023-01-18T12:36:24.472Z,26.22
2023-01-18T12:38:57.679Z,26.29
2023-01-18T12:41:54.854Z,26.22
2023-01-18T12:44:46.136Z,26.41
2023-01-18T12:47:19.452Z,26.48
2023-01-18T12:49:54.208Z,26.40
2023-01-18T12:52:26.595Z,26.40
2023-01-18T12:55:02.756Z,26.36
2023-01-18T12:57:35.152Z,26.91
2023-01-18T13:00:19.313Z,27.22
2023-01-18T13:02:58.210Z,27.26
2023-01-18T13:05:54.788Z,26.85
2023-01-18T13:08:42.685Z,26.62
2023-01-18T13:11:26.929Z,26.67
2023-01-18T13:14:30.259Z,26.89
2023-01-18T13:17:13.534Z,26.91
2023-01-18T13:19:56.089Z,26.95
2023-01-18T13:22:47.328Z,26.78
2023-01-18T13:25:54.847Z,27.08
2023-01-18T13:28:28.854Z,27.02
2023-01-18T13:31:02.137Z,26.88
2023-01-18T13:33:38.486Z,27.15
2023-01-18T13:36:21.580Z,27.53
2023-01-18T13:39:16.871Z,28.09
2023-01-18T13:42:09.054Z,28.32
2023-01-18T13:44:47.939Z,28.55
2023-01-18T13:47:42.769Z,28.92
2023-01-18T13:50:41.568Z,29.43
2023-01-18T13:53:15.238Z,29.13
2023-01-18T13:56:00.773Z,29.17
2023-01-18T13:58:39.624Z,28.77
2023-01-18T14:01:24.239Z,28.80
2023-01-18T14:03:55.976Z,28.52
2023-01-18T14:06:38.003Z,28.12
2023-01-18T14:09:15.659Z,28.89
2023-01-18T14:11:58.542Z,29.20
2023-01-18T14:14:35.489Z,29.58
2023-01-18T14:17:17.900Z,30.08
2023-01-18T14:19:53.400Z,30.14
2023-01-18T14:22:57.659Z,29.58
2023-01-18T14:25:33.781Z,29.24
2023-01-18T14:28:19.159Z,29.21
2023-01-18T14:30:50.622Z,29.38
2023-01-18T14:33:34.479Z,29.08
2023-01-18T14:36:09.418Z,28.38
2023-01-18T14:38:41.948Z,27.74
2023-01-18T14:41:18.421Z,27.74
2023-01-18T14:43:51.549Z,27.93
2023-01-18T14:46:30.408Z,27.80
2023-01-18T14:49:03.267Z,27.25
2023-01-18T14:51:34.898Z,27.33
2023-01-18T14:54:08.862Z,27.63
2023-01-18T14:56:44.143Z,27.64
2023-01-18T14:59:22.694Z,27.88
2023-01-18T15:02:05.277Z,28.46
2023-01-18T15:04:40.572Z,28.52
2023-01-18T15:07:14.881Z,28.57
2023-01-18T15:09:47.482Z,28.15
2023-01-18T15:12:26.221Z,28.00
2023-01-18T15:14:58.974Z,28.46
2023-01-18T15:17:30.052Z,29.11
2023-01-18T15:20:04.878Z,28.94
2023-01-18T15:22:39.153Z,28.94
2023-01-18T15:25:26.152Z,29.24
2023-01-18T15:28:06.444Z,28.99
2023-01-18T15:30:42.764Z,29.04
2023-01-18T15:33:13.091Z,29.15
2023-01-18T15:35:47.892Z,29.03
2023-01-18T15:38:19.519Z,28.62
2023-01-18T15:41:18.369Z,28.34
2023-01-18T15:43:50.355Z,28.77
2023-01-18T15:46:22.218Z,28.94
2023-01-18T15:49:01.370Z,29.03
2023-01-18T15:51:58.254Z,28.94
2023-01-18T15:54:31.638Z,29.92
2023-01-18T15:57:14.235Z,30.09
2023-01-18T15:59:44.939Z,29.61
2023-01-18T16:02:22.664Z,30.02
2023-01-18T16:05:22.067Z,30.05
2023-01-18T16:08:16.046Z,29.68
2023-01-18T16:10:51.925Z,29.39
2023-01-18T16:13:33.644Z,29.72
2023-01-18T16:16:07.251Z,29.35
2023-01-18T16:18:38.664Z,29.35
2023-01-18T16:21:15.485Z,29.27
2023-01-18T16:23:50.369Z,28.99
2023-01-18T16:26:26.013Z,28.94
2023-01-18T16:29:06.674Z,28.69
2023-01-18T16:31:42.689Z,28.53
2023-01-18T16:34:25.510Z,28.59
2023-01-18T16:36:56.558Z,28.97
2023-01-18T16:39:27.100Z,28.93
2023-01-18T16:41:59.467Z,28.52
2023-01-18T16:44:29.634Z,28.63
2023-01-18T16:47:00.226Z,29.03
2023-01-18T16:49:32.018Z,29.00
2023-01-18T16:52:02.273Z,28.93
2023-01-18T16:54:32.069Z,29.02
2023-01-18T16:57:02.730Z,29.25
2023-01-18T16:59:33.849Z,28.99
2023-01-18T17:02:04.958Z,28.35
2023-01-18T17:04:35.184Z,27.81
2023-01-18T17:07:09.342Z,27.67
2023-01-18T17:09:48.482Z,27.97
2023-01-18T17:12:19.538Z,28.59
2023-01-18T17:14:50.154Z,29.90
2023-01-18T17:17:21.642Z,30.16
2023-01-18T17:19:53.085Z,30.03
2023-01-18T17:22:23.607Z,29.35
2023-01-18T17:24:55.428Z,28.76
2023-01-18T17:27:26.548Z,28.18
2023-01-18T17:29:56.723Z,27.70
2023-01-18T17:34:59.081Z,28.55
2023-01-18T17:37:28.966Z,28.66
2023-01-18T17:40:10.882Z,28.63
2023-01-18T17:42:43.047Z,28.46
2023-01-18T17:45:15.793Z,27.91
2023-01-18T17:47:49.241Z,28.76
2023-01-18T17:50:25.777Z,29.47
2023-01-18T17:52:59.566Z,28.93
2023-01-18T17:55:34.586Z,28.66
2023-01-18T17:58:05.922Z,28.27
2023-01-18T18:00:36.639Z,28.36
2023-01-18T18:03:08.370Z,28.89
2023-01-18T18:05:39.391Z,29.07
2023-01-18T18:08:10.997Z,28.63
2023-01-18T18:10:44.985Z,29.34
2023-01-18T18:13:16.411Z,30.19
2023-01-18T18:15:53.229Z,30.06
2023-01-18T18:18:24.943Z,30.34
2023-01-18T18:21:03.755Z,29.81
2023-01-18T18:23:44.571Z,29.55
2023-01-18T18:26:15.273Z,29.34
2023-01-18T18:28:45.151Z,29.47
2023-01-18T18:31:17.475Z,29.17
2023-01-18T18:33:49.382Z,28.70
2023-01-18T18:36:19.466Z,27.91
2023-01-18T18:38:49.419Z,27.61
2023-01-18T18:41:21.391Z,27.74
2023-01-18T18:43:54.038Z,27.73
2023-01-18T18:46:24.532Z,27.70
2023-01-18T18:48:58.004Z,28.51
2023-01-18T18:51:29.583Z,28.48
2023-01-18T18:54:03.981Z,28.45
2023-01-18T18:56:34.380Z,27.74
2023-01-18T18:59:04.930Z,27.43
2023-01-18T19:01:36.412Z,27.91
2023-01-18T19:04:08.507Z,28.51
2023-01-18T19:06:39.431Z,28.57
2023-01-18T19:09:09.226Z,28.49
2023-01-18T19:11:50.448Z,28.27
2023-01-18T19:14:27.579Z,27.91
2023-01-18T19:16:58.529Z,27.88
2023-01-18T19:19:28.835Z,27.51
2023-01-18T19:21:59.897Z,27.16
2023-01-18T19:24:35.474Z,27.12
2023-01-18T19:27:05.914Z,27.46
2023-01-18T19:29:36.360Z,27.53
2023-01-18T19:32:07.318Z,27.01
2023-01-18T19:34:39.469Z,26.95
2023-01-18T19:37:09.766Z,26.51
2023-01-18T19:39:39.650Z,26.31
2023-01-18T19:42:10.038Z,26.36
2023-01-18T19:44:40.215Z,26.26
2023-01-18T19:47:10.865Z,26.10
2023-01-18T19:49:41.947Z,25.86
2023-01-18T19:52:12.470Z,25.55
2023-01-18T19:54:42.698Z,25.48
2023-01-18T19:57:19.260Z,25.61
2023-01-18T19:59:49.673Z,25.61
2023-01-18T20:02:20.263Z,25.64
2023-01-18T20:04:52.863Z,25.78
2023-01-18T20:07:26.006Z,25.62
2023-01-18T20:09:56.181Z,25.57
2023-01-18T20:12:30.312Z,25.45
2023-01-18T20:15:01.621Z,25.59
2023-01-18T20:17:32.672Z,25.51
2023-01-18T20:20:03.061Z,25.45
2023-01-18T20:22:32.911Z,25.45
2023-01-18T20:25:05.655Z,25.61
2023-01-18T20:27:36.729Z,25.81
2023-01-18T20:30:07.461Z,25.82
2023-01-18T20:32:37.737Z,25.75
2023-01-18T20:35:07.956Z,25.83
2023-01-18T20:37:38.442Z,25.97
2023-01-18T20:40:10.079Z,25.85
2023-01-18T20:42:41.875Z,26.04
2023-01-18T20:45:12.222Z,26.19
2023-01-18T20:47:41.930Z,26.16
2023-01-18T20:50:12.684Z,26.00
2023-01-18T20:52:44.238Z,25.92
2023-01-18T20:55:16.766Z,25.72
2023-01-18T20:57:52.330Z,25.58
2023-01-18T21:00:23.981Z,25.55
2023-01-18T21:02:54.473Z,25.35
2023-01-18T21:05:25.298Z,25.27
2023-01-18T21:07:55.526Z,25.24
2023-01-18T21:10:39.954Z,25.14
2023-01-18T21:13:12.790Z,25.08
2023-01-18T21:15:47.669Z,25.03
2023-01-18T21:18:17.903Z,25.07
2023-01-18T21:21:00.249Z,25.04
2023-01-18T21:23:30.919Z,24.98
2023-01-18T21:26:02.783Z,24.84
2023-01-18T21:28:33.171Z,24.73
2023-01-18T21:31:03.029Z,24.70
2023-01-18T21:33:34.904Z,24.66
2023-01-18T21:36:11.793Z,24.63
2023-01-18T21:38:43.184Z,24.52
2023-01-18T21:41:32.136Z,24.46
2023-01-18T21:44:20.655Z,24.39
2023-01-18T21:46:53.463Z,24.36
2023-01-18T21:50:11.240Z,24.42
2023-01-18T21:52:50.641Z,24.42
2023-01-18T21:55:21.826Z,24.39
2023-01-18T21:58:11.478Z,24.33
2023-01-18T22:00:44.455Z,24.32
2023-01-18T22:03:17.908Z,24.35
2023-01-18T22:05:48.774Z,24.38
2023-01-18T22:08:19.091Z,24.36
2023-01-18T22:10:50.814Z,24.36
2023-01-18T22:13:20.739Z,24.38
2023-01-18T22:15:50.470Z,24.39
2023-01-18T22:18:21.836Z,24.36
2023-01-18T22:20:58.292Z,24.29
2023-01-18T22:23:29.545Z,24.35
2023-01-18T22:25:59.690Z,24.35
2023-01-18T22:28:29.596Z,24.26
2023-01-18T22:31:01.502Z,24.33
2023-01-18T22:33:32.253Z,24.33
2023-01-18T22:36:02.931Z,24.29
2023-01-18T22:38:34.180Z,24.25
2023-01-18T22:41:12.815Z,24.24
2023-01-18T22:43:44.842Z,24.24
2023-01-18T22:46:20.353Z,24.24
2023-01-18T22:48:51.271Z,24.21
2023-01-18T22:51:23.992Z,24.22
2023-01-18T22:53:57.536Z,24.26
2023-01-18T22:56:29.084Z,24.25
2023-01-18T22:58:59.687Z,24.28
2023-01-18T23:01:32.922Z,24.26
2023-01-18T23:04:06.266Z,24.22
2023-01-18T23:06:52.640Z,24.19
2023-01-18T23:09:22.831Z,24.17
2023-01-18T23:11:53.001Z,24.17
2023-01-18T23:14:41.955Z,24.18
2023-01-18T23:17:31.887Z,24.18
2023-01-18T23:20:02.621Z,24.17
2023-01-18T23:22:32.499Z,24.11
2023-01-18T23:25:10.225Z,24.15
2023-01-18T23:27:40.557Z,24.17
2023-01-18T23:30:11.916Z,24.18
2023-01-18T23:33:06.763Z,24.22
2023-01-18T23:35:38.783Z,24.26
2023-01-18T23:38:09.265Z,24.24
2023-01-18T23:40:57.961Z,24.22
2023-01-18T23:43:46.264Z,24.22
2023-01-18T23:46:34.933Z,24.28
2023-01-18T23:49:24.098Z,24.25
2023-01-18T23:52:14.158Z,24.22
2023-01-18T23:54:44.417Z,24.18
2023-01-18T23:57:14.342Z,24.15
2023-01-18T23:59:45.125Z,24.18
